Time;durP1;ratioP1;P1;durP2;ratioP2;P2;SDS_P1;SDS_P2;PMS_P1;PMS_P2;Temp;Humidity;BMP_temperature;BMP_pressure;BME280_temperature;BME280_humidity;BME280_pressure;Samples;Min_cycle;Max_cycle;Signal;HPM_P1;HPM_P2
2024/03/01 00:02:24;;;;;;;6.85;4.07;;;;;;;11.42;100.00;100086.94;5247944;28;20029;-75
2024/03/01 00:04:55;;;;;;;6.72;3.88;;;;;;;11.38;100.00;100099.09;5258235;28;20024;-75
2024/03/01 00:07:25;;;;;;;7.70;3.88;;;;;;;11.33;100.00;100090.75;5251317;28;20078;-75
2024/03/01 00:09:56;;;;;;;5.45;3.80;;;;;;;11.31;100.00;100072.16;5258485;28;20020;-75
2024/03/01 00:12:26;;;;;;;6.40;3.88;;;;;;;11.36;100.00;100080.50;5241681;28;20032;-75
2024/03/01 00:14:57;;;;;;;5.63;3.65;;;;;;;11.43;100.00;100088.59;5249007;28;20055;-75
2024/03/01 00:17:27;;;;;;;9.60;4.05;;;;;;;11.45;100.00;100075.00;5250011;28;20495;-75
2024/03/01 00:19:58;;;;;;;7.03;4.28;;;;;;;11.41;100.00;100087.97;5246307;28;20044;-75
2024/03/01 00:22:28;;;;;;;5.65;3.45;;;;;;;11.31;100.00;100088.28;5253925;28;20029;-75
2024/03/01 00:24:59;;;;;;;6.13;3.65;;;;;;;11.27;100.00;100086.16;5249842;28;20496;-75
2024/03/01 00:27:29;;;;;;;9.95;3.65;;;;;;;11.32;100.00;100084.56;5254810;28;20481;-75
2024/03/01 00:30:00;;;;;;;5.85;3.58;;;;;;;11.30;100.00;100070.50;5251529;28;20024;-75
2024/03/01 00:32:32;;;;;;;5.10;3.58;;;;;;;11.29;100.00;100081.41;5255316;28;20046;-74
2024/03/01 00:35:02;;;;;;;5.78;3.33;;;;;;;11.35;100.00;100069.94;5250862;28;20077;-75
2024/03/01 00:37:33;;;;;;;5.32;3.35;;;;;;;11.50;100.00;100076.09;5269225;28;20545;-75
2024/03/01 00:40:04;;;;;;;4.75;3.47;;;;;;;11.47;100.00;100062.22;5255938;28;20028;-75
2024/03/01 00:42:34;;;;;;;4.25;3.17;;;;;;;11.47;100.00;100072.94;5264452;28;20028;-75
2024/03/01 00:45:05;;;;;;;7.45;3.65;;;;;;;11.49;100.00;100068.22;5258637;28;20016;-75
2024/03/01 00:47:43;;;;;;;8.23;3.58;;;;;;;11.54;100.00;100066.59;5258708;28;20040;-75
2024/03/01 00:50:15;;;;;;;4.63;3.00;;;;;;;11.59;100.00;100071.41;5261125;28;20024;-75
2024/03/01 00:52:46;;;;;;;7.75;3.75;;;;;;;11.55;100.00;100064.78;5262623;28;20025;-75
2024/03/01 00:55:17;;;;;;;6.65;3.38;;;;;;;11.51;100.00;100058.94;5261970;28;20022;-75
2024/03/01 00:57:47;;;;;;;8.80;3.70;;;;;;;11.46;100.00;100066.75;5259199;28;20044;-75
2024/03/01 01:00:18;;;;;;;5.28;3.50;;;;;;;11.41;100.00;100058.44;5255540;28;20114;-75
2024/03/01 01:02:49;;;;;;;6.03;4.03;;;;;;;11.55;100.00;100060.25;5254530;28;20028;-75
2024/03/01 01:05:19;;;;;;;5.68;3.40;;;;;;;11.48;100.00;100048.56;5262740;28;20439;-75
2024/03/01 01:07:50;;;;;;;5.53;3.40;;;;;;;11.41;100.00;100047.69;5260307;28;20103;-75
2024/03/01 01:10:21;;;;;;;6.28;4.03;;;;;;;11.38;100.00;100048.06;5258028;28;20115;-75
2024/03/01 01:12:51;;;;;;;5.07;3.72;;;;;;;11.57;100.00;100051.97;5260791;28;20043;-75
2024/03/01 01:15:22;;;;;;;7.53;4.22;;;;;;;11.61;100.00;100058.63;5253648;28;20026;-75
2024/03/01 01:17:53;;;;;;;5.35;3.92;;;;;;;11.59;100.00;100042.69;5264038;28;20034;-75
2024/03/01 01:20:24;;;;;;;6.63;3.42;;;;;;;11.46;100.00;100037.22;5258395;28;20013;-75
2024/03/01 01:22:54;;;;;;;6.57;4.07;;;;;;;11.45;100.00;100032.88;5257319;28;20366;-75
2024/03/01 01:25:25;;;;;;;6.30;3.88;;;;;;;11.49;100.00;100035.97;5252883;28;20012;-75
2024/03/01 01:27:55;;;;;;;6.63;3.97;;;;;;;11.47;100.00;100033.50;5257297;28;20109;-75
2024/03/01 01:30:26;;;;;;;6.40;4.20;;;;;;;11.55;100.00;100035.22;5257192;28;20470;-75
2024/03/01 01:32:56;;;;;;;7.72;5.07;;;;;;;11.47;100.00;100028.13;5258967;28;20051;-75
2024/03/01 01:35:27;;;;;;;6.18;3.90;;;;;;;11.53;100.00;100035.41;5261592;28;20065;-75
2024/03/01 01:37:57;;;;;;;5.97;4.07;;;;;;;11.56;100.00;100035.03;5249593;28;20703;-75
2024/03/01 01:40:30;;;;;;;5.95;3.83;;;;;;;11.50;100.00;100025.06;5242445;28;20042;-75
2024/03/01 01:43:02;;;;;;;6.38;4.22;;;;;;;11.59;100.00;100029.25;5256693;28;20023;-75
2024/03/01 01:45:33;;;;;;;6.82;4.20;;;;;;;11.51;100.00;100023.22;5259940;28;20020;-74
2024/03/01 01:48:04;;;;;;;5.38;3.58;;;;;;;11.48;100.00;100023.56;5254211;28;20035;-75
2024/03/01 01:50:35;;;;;;;10.80;4.60;;;;;;;11.41;100.00;100023.53;5258519;28;20482;-75
2024/03/01 01:53:06;;;;;;;6.32;4.35;;;;;;;11.52;100.00;100033.75;5253419;28;20081;-75
2024/03/01 01:55:37;;;;;;;8.25;4.63;;;;;;;11.44;100.00;100022.28;5258011;28;20035;-76
2024/03/01 01:58:08;;;;;;;12.70;4.80;;;;;;;11.43;100.00;100020.63;5258573;28;20032;-74
2024/03/01 02:00:39;;;;;;;12.88;5.53;;;;;;;11.34;100.00;100023.44;5254634;28;20512;-75
2024/03/01 02:03:10;;;;;;;8.38;5.32;;;;;;;11.48;100.00;100074.59;5255806;28;20048;-75
2024/03/01 02:05:41;;;;;;;9.27;3.42;;;;;;;11.11;100.00;100090.72;5258108;28;20020;-75
2024/03/01 02:08:12;;;;;;;4.78;3.40;;;;;;;10.67;100.00;100087.25;5256125;28;20024;-76
2024/03/01 02:10:43;;;;;;;7.80;5.20;;;;;;;10.27;100.00;100110.81;5257139;28;20028;-75
2024/03/01 02:13:18;;;;;;;8.27;5.75;;;;;;;9.96;100.00;100111.72;5254116;28;20097;-75
2024/03/01 02:15:49;;;;;;;9.93;5.65;;;;;;;9.73;100.00;100106.34;5253965;28;20033;-75
2024/03/01 02:18:20;;;;;;;7.13;4.47;;;;;;;9.51;100.00;100113.38;5257530;28;20046;-75
2024/03/01 02:21:00;;;;;;;5.07;3.92;;;;;;;9.25;100.00;100123.56;5257401;28;20354;-75
2024/03/01 02:23:36;;;;;;;4.05;2.40;;;;;;;8.91;100.00;100132.75;5253064;28;20035;-75
2024/03/01 02:26:07;;;;;;;2.85;1.70;;;;;;;8.75;100.00;100133.63;5251369;28;20020;-75
2024/03/01 02:28:44;;;;;;;2.67;1.88;;;;;;;8.64;100.00;100142.03;5255139;28;20036;-75
2024/03/01 02:31:15;;;;;;;4.28;1.67;;;;;;;8.55;100.00;100143.03;5256601;28;20056;-75
2024/03/01 02:34:00;;;;;;;;;;;;;;;8.47;100.00;100151.06;5255784;28;20028;-75
2024/03/01 02:36:31;;;;;;;1.00;0.90;;;;;;;8.29;100.00;100145.91;5255483;28;19920;-75
2024/03/01 02:39:01;;;;;;;1.60;1.05;;;;;;;8.25;100.00;100152.56;5250718;28;20030;-76
2024/03/01 02:41:32;;;;;;;1.40;0.93;;;;;;;8.28;100.00;100150.41;5268145;27;20040;-76
2024/03/01 02:44:03;;;;;;;2.38;1.17;;;;;;;8.22;100.00;100152.91;5256442;28;20028;-75
2024/03/01 02:46:33;;;;;;;1.73;1.10;;;;;;;8.14;100.00;100160.94;5254692;28;20078;-75
2024/03/01 02:49:04;;;;;;;2.25;1.30;;;;;;;8.08;100.00;100161.56;5256263;28;20556;-76
2024/03/01 02:51:34;;;;;;;2.33;1.33;;;;;;;8.14;100.00;100167.13;5247207;28;20032;-75
2024/03/01 02:54:05;;;;;;;2.38;1.40;;;;;;;8.07;100.00;100166.09;5253132;28;20029;-75
2024/03/01 02:56:37;;;;;;;5.95;1.70;;;;;;;8.02;100.00;100166.59;5249192;28;20028;-75
2024/03/01 02:59:10;;;;;;;4.57;2.30;;;;;;;8.11;100.00;100164.75;5250379;28;20401;-76
2024/03/01 03:01:40;;;;;;;2.75;2.22;;;;;;;8.12;100.00;100173.59;5254106;28;20030;-77
2024/03/01 03:04:12;;;;;;;3.13;2.42;;;;;;;8.19;100.00;100178.13;5246030;28;20028;-77
2024/03/01 03:06:42;;;;;;;6.68;3.65;;;;;;;8.23;100.00;100183.97;5251166;28;20079;-77
2024/03/01 03:09:13;;;;;;;8.43;5.15;;;;;;;8.22;100.00;100182.28;5253886;28;20161;-78
2024/03/01 03:11:44;;;;;;;8.65;5.22;;;;;;;8.25;100.00;100185.47;5252369;28;20032;-76
2024/03/01 03:14:15;;;;;;;14.80;6.47;;;;;;;8.25;100.00;100193.50;5255038;28;20036;-78
2024/03/01 03:16:46;;;;;;;11.00;6.85;;;;;;;8.28;100.00;100194.97;5251524;28;20044;-76
2024/03/01 03:19:17;;;;;;;10.88;6.53;;;;;;;8.28;100.00;100194.97;5251042;28;20039;-76
2024/03/01 03:21:48;;;;;;;9.43;5.32;;;;;;;8.29;100.00;100202.03;5252284;28;20036;-77
2024/03/01 03:24:19;;;;;;;7.90;4.28;;;;;;;8.31;100.00;100200.00;5254949;28;20064;-76
2024/03/01 03:26:49;;;;;;;8.25;4.45;;;;;;;8.33;100.00;100203.34;5250641;28;20103;-77
2024/03/01 03:29:20;;;;;;;12.23;4.38;;;;;;;8.33;100.00;100206.00;5251761;28;20043;-77
2024/03/01 03:31:51;;;;;;;7.25;3.83;;;;;;;8.36;100.00;100205.72;5257242;28;20039;-76
2024/03/01 03:34:21;;;;;;;9.05;4.30;;;;;;;8.35;100.00;100206.69;5248903;28;20115;-77
2024/03/01 03:36:52;;;;;;;11.02;4.88;;;;;;;8.35;100.00;100212.03;5253595;28;20024;-77
2024/03/01 03:39:23;;;;;;;10.93;4.90;;;;;;;8.34;100.00;100204.19;5249987;28;20115;-76
2024/03/01 03:41:54;;;;;;;10.90;4.80;;;;;;;8.32;100.00;100209.69;5252609;28;20566;-76
2024/03/01 03:44:25;;;;;;;10.00;4.75;;;;;;;8.32;100.00;100215.03;5250748;28;20056;-76
2024/03/01 03:46:56;;;;;;;12.60;4.70;;;;;;;8.35;100.00;100217.38;5250942;28;20034;-76
2024/03/01 03:49:26;;;;;;;10.98;5.13;;;;;;;8.32;100.00;100220.38;5252070;28;20033;-76
2024/03/01 03:51:56;;;;;;;8.95;4.43;;;;;;;8.22;100.00;100217.03;5260271;28;20111;-76
2024/03/01 03:54:27;;;;;;;10.63;4.55;;;;;;;8.19;100.00;100231.56;5251857;28;20055;-76
2024/03/01 03:56:58;;;;;;;12.50;3.90;;;;;;;8.22;100.00;100233.91;5249788;28;20370;-76
2024/03/01 03:59:28;;;;;;;9.02;4.03;;;;;;;8.24;100.00;100231.91;5250504;28;20060;-81
2024/03/01 04:01:59;;;;;;;9.50;4.60;;;;;;;8.23;100.00;100237.41;5256216;28;20033;-76
2024/03/01 04:04:29;;;;;;;11.93;4.07;;;;;;;8.26;100.00;100237.09;5255173;28;20035;-76
2024/03/01 04:07:00;;;;;;;10.25;4.10;;;;;;;8.20;100.00;100243.94;5256665;28;20436;-76
2024/03/01 04:09:30;;;;;;;8.55;4.07;;;;;;;8.19;100.00;100238.75;5255112;28;20060;-79
2024/03/01 04:12:05;;;;;;;9.70;4.18;;;;;;;8.20;100.00;100241.25;5256021;28;20050;-76
2024/03/01 04:14:36;;;;;;;8.27;3.95;;;;;;;8.17;100.00;100257.59;5271487;28;20036;-76
2024/03/01 04:17:06;;;;;;;11.18;4.05;;;;;;;8.09;100.00;100256.78;5253267;28;20092;-76
2024/03/01 04:19:37;;;;;;;9.38;4.10;;;;;;;8.03;100.00;100256.44;5257136;28;20033;-78
2024/03/01 04:22:09;;;;;;;11.05;4.18;;;;;;;7.91;100.00;100263.06;5255224;28;20073;-76
2024/03/01 04:24:41;;;;;;;13.25;3.92;;;;;;;7.91;100.00;100268.41;5257359;28;20735;-76
2024/03/01 04:27:12;;;;;;;14.50;4.60;;;;;;;7.83;100.00;100262.19;5256395;28;20036;-79
2024/03/01 04:29:42;;;;;;;9.07;4.03;;;;;;;7.81;100.00;100266.88;5256648;28;20111;-76
2024/03/01 04:32:14;;;;;;;7.95;4.20;;;;;;;7.73;100.00;100267.69;5259634;28;20039;-78
2024/03/01 04:34:44;;;;;;;9.35;4.25;;;;;;;7.69;100.00;100274.38;5255472;28;20025;-76
2024/03/01 04:37:15;;;;;;;12.52;5.13;;;;;;;7.55;100.00;100269.63;5257056;28;20066;-76
2024/03/01 04:39:46;;;;;;;17.20;4.82;;;;;;;7.50;100.00;100273.63;5258458;28;20024;-76
2024/03/01 04:42:17;;;;;;;16.80;4.97;;;;;;;7.53;100.00;100273.31;5253628;28;20115;-76
2024/03/01 04:44:48;;;;;;;13.68;5.57;;;;;;;7.44;100.00;100279.59;5260770;28;20032;-77
2024/03/01 04:47:18;;;;;;;17.10;6.20;;;;;;;7.41;100.00;100284.41;5252014;28;20065;-76
2024/03/01 04:49:49;;;;;;;15.90;7.20;;;;;;;7.33;100.00;100287.88;5256802;28;20019;-75
2024/03/01 04:52:25;;;;;;;15.20;6.38;;;;;;;7.36;100.00;100284.06;5256972;28;20040;-79
2024/03/01 04:54:56;;;;;;;15.07;5.95;;;;;;;7.36;100.00;100279.56;5256691;28;20047;-75
2024/03/01 04:57:27;;;;;;;16.40;7.18;;;;;;;7.29;100.00;100278.53;5254332;28;20020;-75
2024/03/01 04:59:57;;;;;;;19.48;7.75;;;;;;;7.31;100.00;100287.19;5246504;28;20731;-76
2024/03/01 05:02:28;;;;;;;18.17;7.68;;;;;;;7.23;100.00;100288.00;5252585;28;20027;-76
2024/03/01 05:04:59;;;;;;;20.60;8.13;;;;;;;7.22;100.00;100291.63;5258370;28;20020;-75
2024/03/01 05:07:30;;;;;;;18.42;7.50;;;;;;;7.16;100.00;100288.78;5252869;28;20413;-76
2024/03/01 05:10:00;;;;;;;26.95;9.63;;;;;;;7.08;100.00;100291.38;5257760;28;20023;-75
2024/03/01 05:12:41;;;;;;;23.10;9.68;;;;;;;7.05;100.00;100292.56;5251745;28;20030;-76
2024/03/01 05:15:12;;;;;;;28.13;12.98;;;;;;;6.97;100.00;100303.97;5257061;28;20039;-77
2024/03/01 05:17:45;;;;;;;24.25;9.38;;;;;;;6.89;100.00;100300.44;5257723;28;20032;-75
2024/03/01 05:20:16;;;;;;;30.40;10.60;;;;;;;6.88;100.00;100312.94;5252344;28;20028;-75
2024/03/01 05:22:46;;;;;;;21.33;9.40;;;;;;;6.89;100.00;100314.63;5260141;28;20034;-75
2024/03/01 05:25:17;;;;;;;28.88;10.70;;;;;;;6.86;100.00;100317.56;5252437;28;20465;-75
2024/03/01 05:27:48;;;;;;;26.80;11.35;;;;;;;6.82;100.00;100310.03;5257500;28;20042;-75
2024/03/01 05:30:20;;;;;;;26.27;10.32;;;;;;;6.79;100.00;100316.53;5252096;28;20019;-76
2024/03/01 05:32:52;;;;;;;24.45;9.32;;;;;;;6.79;100.00;100311.22;5254132;28;20477;-76
2024/03/01 05:35:22;;;;;;;25.55;9.32;;;;;;;6.78;100.00;100309.53;5254963;28;20036;-76
2024/03/01 05:37:56;;;;;;;21.48;9.45;;;;;;;6.74;100.00;100306.34;5254255;28;20028;-77
2024/03/01 05:40:27;;;;;;;23.67;9.77;;;;;;;6.68;100.00;100311.47;5255458;28;20020;-75
2024/03/01 05:42:57;;;;;;;24.00;9.25;;;;;;;6.66;100.00;100311.59;5255663;28;20026;-75
2024/03/01 05:45:29;;;;;;;25.50;10.00;;;;;;;6.61;100.00;100311.22;5214917;28;1119414;-78
2024/03/01 05:48:00;;;;;;;24.48;9.52;;;;;;;6.59;100.00;100315.03;5255189;28;20034;-79
2024/03/01 05:50:31;;;;;;;25.20;9.50;;;;;;;6.55;100.00;100313.66;5252544;28;20032;-75
2024/03/01 05:53:02;;;;;;;21.55;9.07;;;;;;;6.50;100.00;100322.13;5257824;28;20024;-75
2024/03/01 05:55:33;;;;;;;23.80;9.55;;;;;;;6.51;100.00;100314.94;5247689;28;20039;-76
2024/03/01 05:58:03;;;;;;;26.65;10.27;;;;;;;6.47;100.00;100327.72;5257519;28;20023;-75
2024/03/01 06:00:35;;;;;;;21.10;9.10;;;;;;;6.48;100.00;100337.44;5244805;28;20138;-75
2024/03/01 06:03:06;;;;;;;22.15;9.45;;;;;;;6.43;100.00;100335.22;5250343;28;20414;-76
2024/03/01 06:05:36;;;;;;;21.92;8.55;;;;;;;6.35;100.00;100335.13;5256645;28;20022;-75
2024/03/01 06:08:07;;;;;;;24.50;10.20;;;;;;;6.30;100.00;100337.41;5253583;28;20076;-76
2024/03/01 06:10:37;;;;;;;22.60;9.45;;;;;;;6.23;100.00;100334.53;5252215;28;20024;-75
2024/03/01 06:13:08;;;;;;;21.38;9.25;;;;;;;6.24;100.00;100338.03;5252332;28;20016;-78
2024/03/01 06:15:38;;;;;;;26.83;9.15;;;;;;;6.16;100.00;100330.75;5254237;28;20031;-79
2024/03/01 06:18:09;;;;;;;27.58;8.68;;;;;;;6.16;100.00;100329.94;5253938;28;20095;-76
2024/03/01 06:20:39;;;;;;;28.85;9.40;;;;;;;6.15;100.00;100333.59;5253670;28;20436;-76
2024/03/01 06:23:10;;;;;;;27.20;9.52;;;;;;;6.21;100.00;100328.47;5255022;28;20167;-77
2024/03/01 06:25:40;;;;;;;26.42;9.80;;;;;;;6.20;100.00;100325.97;5253318;28;20020;-75
2024/03/01 06:28:11;;;;;;;21.63;9.35;;;;;;;6.25;100.00;100328.19;5255806;28;20024;-78
2024/03/01 06:30:42;;;;;;;25.60;9.38;;;;;;;6.20;100.00;100315.31;5255022;28;20024;-77
2024/03/01 06:33:12;;;;;;;24.15;9.93;;;;;;;6.18;100.00;100320.81;5254708;28;20031;-76
2024/03/01 06:35:42;;;;;;;28.08;9.98;;;;;;;6.22;100.00;100321.31;5254396;28;20469;-78
2024/03/01 06:38:13;;;;;;;20.92;7.93;;;;;;;6.17;100.00;100323.59;5250969;28;20032;-78
2024/03/01 06:40:43;;;;;;;21.52;8.85;;;;;;;6.17;100.00;100312.94;5257445;28;20020;-74
2024/03/01 06:43:15;;;;;;;24.67;9.63;;;;;;;6.13;100.00;100315.09;5254299;28;20024;-74
2024/03/01 06:45:45;;;;;;;27.13;9.90;;;;;;;6.19;100.00;100324.31;5251388;28;20021;-77
2024/03/01 06:48:16;;;;;;;22.75;10.43;;;;;;;6.20;100.00;100318.81;5254841;28;20034;-74
2024/03/01 06:50:46;;;;;;;22.00;9.25;;;;;;;6.16;100.00;100312.13;5254726;28;20024;-73
2024/03/01 06:53:17;;;;;;;26.25;8.80;;;;;;;6.03;100.00;100305.50;5254942;28;20135;-73
2024/03/01 06:55:47;;;;;;;23.77;8.65;;;;;;;6.11;100.00;100314.41;5252969;28;20093;-77
2024/03/01 06:58:18;;;;;;;18.52;7.22;;;;;;;6.08;100.00;100316.53;5254524;28;20019;-77
2024/03/01 07:00:48;;;;;;;21.45;7.70;;;;;;;6.17;100.00;100326.28;5250778;28;20135;-73
2024/03/01 07:03:19;;;;;;;25.80;8.30;;;;;;;6.22;100.00;100331.97;5249110;28;20044;-74
2024/03/01 07:05:49;;;;;;;27.48;9.35;;;;;;;6.12;100.00;100320.56;5254043;28;20020;-74
2024/03/01 07:08:20;;;;;;;19.58;8.10;;;;;;;6.08;100.00;100300.56;5250478;28;20043;-79
2024/03/01 07:10:52;;;;;;;23.90;8.60;;;;;;;6.15;100.00;100317.59;5255185;28;20130;-75
2024/03/01 07:13:23;;;;;;;21.92;8.52;;;;;;;6.22;100.00;100321.31;5249724;28;20032;-75
2024/03/01 07:15:54;;;;;;;23.98;8.27;;;;;;;6.29;100.00;100314.44;5254520;28;20161;-76
2024/03/01 07:18:24;;;;;;;22.10;9.25;;;;;;;6.57;100.00;100309.00;5252931;28;20020;-75
2024/03/01 07:20:55;;;;;;;17.60;7.78;;;;;;;7.01;100.00;100329.34;5253392;28;20027;-74
2024/03/01 07:23:25;;;;;;;20.48;8.02;;;;;;;7.40;100.00;100331.63;5251082;28;20036;-75
2024/03/01 07:25:56;;;;;;;22.17;7.95;;;;;;;7.55;100.00;100333.69;5252466;28;20027;-79
2024/03/01 07:28:27;;;;;;;14.43;6.57;;;;;;;7.24;100.00;100334.19;5249631;28;20031;-74
2024/03/01 07:30:57;;;;;;;17.92;7.00;;;;;;;7.29;100.00;100328.38;5256108;28;20534;-74
2024/03/01 07:33:27;;;;;;;19.77;7.15;;;;;;;7.31;100.00;100332.56;5248603;28;20020;-78
2024/03/01 07:35:58;;;;;;;11.73;5.60;;;;;;;7.04;100.00;100319.38;5254562;28;20020;-76
2024/03/01 07:38:28;;;;;;;19.95;6.28;;;;;;;7.11;100.00;100320.41;5248063;28;20502;-75
2024/03/01 07:40:59;;;;;;;19.10;7.35;;;;;;;7.19;100.00;100307.16;5252924;28;20389;-74
2024/03/01 07:43:30;;;;;;;16.30;6.32;;;;;;;7.16;100.00;100318.13;5236690;28;20016;-75
2024/03/01 07:46:00;;;;;;;12.68;5.53;;;;;;;7.16;100.00;100316.28;5248679;28;20028;-78
2024/03/01 07:48:32;;;;;;;12.27;5.50;;;;;;;7.26;100.00;100327.69;5249945;28;20484;-75
2024/03/01 07:51:03;;;;;;;11.05;4.63;;;;;;;7.17;100.00;100333.13;5252143;28;20055;-78
2024/03/01 07:53:34;;;;;;;10.90;4.30;;;;;;;7.19;100.00;100329.31;5251414;28;20056;-74
2024/03/01 07:56:05;;;;;;;18.05;5.10;;;;;;;7.29;100.00;100317.72;5248114;28;20103;-77
2024/03/01 07:58:36;;;;;;;9.88;4.30;;;;;;;7.23;100.00;100338.69;5248710;28;20079;-77
2024/03/01 08:01:07;;;;;;;13.73;5.22;;;;;;;7.20;100.00;100322.16;5249648;28;20496;-78
2024/03/01 08:03:38;;;;;;;10.35;4.47;;;;;;;7.21;100.00;100323.81;5247823;28;20036;-78
2024/03/01 08:06:09;;;;;;;12.70;3.80;;;;;;;7.16;100.00;100323.47;5251563;28;20065;-77
2024/03/01 08:08:43;;;;;;;11.82;3.80;;;;;;;7.18;100.00;100335.66;5247970;28;20028;-75
2024/03/01 08:11:32;;;;;;;9.55;4.38;;;;;;;7.32;100.00;100344.06;5250832;28;20111;-75
2024/03/01 08:14:05;;;;;;;12.32;4.65;;;;;;;7.28;100.00;100348.91;5246113;28;20058;-77
2024/03/01 08:16:36;;;;;;;13.45;4.00;;;;;;;7.42;100.00;100347.47;5246989;28;20044;-77
2024/03/01 08:19:13;;;;;;;7.28;3.60;;;;;;;7.35;100.00;100322.41;5253201;28;20028;-75
2024/03/01 08:21:43;;;;;;;9.88;4.50;;;;;;;7.41;100.00;100311.94;5247858;28;20032;-78
2024/03/01 08:24:21;;;;;;;6.35;3.47;;;;;;;7.45;100.00;100309.78;5250620;28;20077;-74
2024/03/01 08:26:52;;;;;;;8.32;3.60;;;;;;;7.57;100.00;100300.50;5253752;28;20044;-75
2024/03/01 08:29:22;;;;;;;11.00;4.10;;;;;;;7.68;100.00;100312.72;5248721;28;20165;-74
2024/03/01 08:31:53;;;;;;;11.25;3.33;;;;;;;7.86;100.00;100301.94;5252978;28;20039;-76
2024/03/01 08:34:30;;;;;;;7.95;3.83;;;;;;;8.19;100.00;100306.41;5246613;28;20703;-78
2024/03/01 08:37:00;;;;;;;9.85;3.00;;;;;;;8.55;100.00;100296.28;5251788;28;20029;-75
2024/03/01 08:39:33;;;;;;;11.45;3.25;;;;;;;8.86;100.00;100292.09;5251931;28;20031;-74
2024/03/01 08:42:04;;;;;;;9.18;2.65;;;;;;;8.89;100.00;100287.25;5254476;28;20028;-75
2024/03/01 08:44:50;;;;;;;6.53;2.22;;;;;;;8.61;100.00;100291.25;5253493;28;20052;-75
2024/03/01 08:47:31;;;;;;;12.45;2.40;;;;;;;8.64;100.00;100282.91;5250900;28;20036;-75
2024/03/01 08:50:36;;;;;;;6.43;1.85;;;;;;;8.55;100.00;100282.06;5248058;28;20095;-76
2024/03/01 08:53:38;;;;;;;10.38;2.03;;;;;;;8.40;100.00;100295.25;5253900;28;20058;-75
2024/03/01 08:56:17;;;;;;;4.82;1.30;;;;;;;8.62;100.00;100277.72;5252642;28;20036;-78
2024/03/01 08:58:48;;;;;;;9.80;1.83;;;;;;;8.98;100.00;100267.47;5250751;28;20027;-75
2024/03/01 09:01:29;;;;;;;13.48;1.88;;;;;;;9.24;100.00;100271.78;5253457;28;20031;-75
2024/03/01 09:04:12;;;;;;;5.75;1.55;;;;;;;9.80;100.00;100275.25;5251405;28;20031;-76
2024/03/01 09:06:42;;;;;;;9.13;1.60;;;;;;;10.07;100.00;100274.75;5251053;28;20477;-79
2024/03/01 09:09:23;;;;;;;5.60;1.60;;;;;;;9.76;100.00;100273.94;5252775;28;20023;-75
2024/03/01 09:11:54;;;;;;;6.07;1.80;;;;;;;10.28;100.00;100274.16;5254617;28;20415;-77
2024/03/01 09:14:31;;;;;;;12.18;1.63;;;;;;;11.19;100.00;100274.19;5253404;28;20037;-76
2024/03/01 09:17:04;;;;;;;12.30;1.92;;;;;;;11.32;100.00;100266.34;5252374;28;20024;-75
2024/03/01 09:19:39;;;;;;;6.75;1.30;;;;;;;11.48;100.00;100268.00;5252206;28;20035;-79
2024/03/01 09:22:11;;;;;;;8.68;2.08;;;;;;;11.69;100.00;100265.38;5252349;28;20020;-78
2024/03/01 09:24:43;;;;;;;10.05;1.80;;;;;;;10.99;100.00;100263.16;5251945;28;20035;-76
2024/03/01 09:27:28;;;;;;;10.38;1.77;;;;;;;10.74;100.00;100263.38;5253808;28;20019;-76
2024/03/01 09:30:04;;;;;;;;;;;;;;;10.99;100.00;100265.84;5252417;28;20026;-77
2024/03/01 09:32:34;;;;;;;7.38;2.13;;;;;;;11.32;100.00;100267.16;5248018;28;19920;-79
2024/03/01 09:35:06;;;;;;;5.13;1.67;;;;;;;11.71;100.00;100267.91;5251346;28;20020;-76
2024/03/01 09:37:36;;;;;;;9.65;2.05;;;;;;;11.50;100.00;100256.06;5248134;28;20409;-77
2024/03/01 09:40:28;;;;;;;6.90;1.85;;;;;;;11.44;100.00;100264.00;5242883;28;20024;-76
2024/03/01 09:43:18;;;;;;;9.75;2.22;;;;;;;10.73;100.00;100250.16;5251020;28;20073;-76
2024/03/01 09:45:56;;;;;;;2.88;1.48;;;;;;;10.28;100.00;100233.09;5244461;28;20652;-75
2024/03/01 09:48:31;;;;;;;10.10;2.38;;;;;;;10.03;100.00;100240.44;5247052;28;20039;-80
2024/03/01 09:51:22;;;;;;;4.30;1.70;;;;;;;10.25;100.00;100223.59;5241866;28;20036;-77
2024/03/01 09:54:15;;;;;;;12.77;1.60;;;;;;;10.70;100.00;100229.09;5246961;28;20111;-78
2024/03/01 09:56:52;;;;;;;10.90;1.98;;;;;;;10.34;100.00;100214.47;5240240;28;20024;-75
2024/03/01 09:59:23;;;;;;;8.27;1.50;;;;;;;10.47;100.00;100197.75;5247246;28;20063;-76
2024/03/01 10:02:04;;;;;;;8.52;1.35;;;;;;;10.89;100.00;100207.91;5245895;28;20382;-80
2024/03/01 10:04:54;;;;;;;9.35;2.10;;;;;;;11.07;100.00;100191.44;5240157;28;20033;-75
2024/03/01 10:07:48;;;;;;;7.20;1.60;;;;;;;11.34;100.00;100175.66;5240518;28;20048;-76
2024/03/01 10:10:34;;;;;;;7.30;1.73;;;;;;;11.51;100.00;100176.31;5240709;28;20027;-76
2024/03/01 10:13:19;;;;;;;5.60;1.42;;;;;;;11.90;100.00;100162.53;5243433;28;20024;-76
2024/03/01 10:16:01;;;;;;;5.35;1.80;;;;;;;12.18;100.00;100162.56;5243507;28;20653;-78
2024/03/01 10:18:49;;;;;;;6.65;1.33;;;;;;;12.26;100.00;100156.22;5243476;28;20027;-78
2024/03/01 10:21:37;;;;;;;5.47;1.05;;;;;;;11.52;100.00;100157.31;5243626;28;20036;-76
2024/03/01 10:24:22;;;;;;;4.03;1.20;;;;;;;11.13;100.00;100165.69;5243769;28;20030;-77
2024/03/01 10:27:03;;;;;;;8.30;1.30;;;;;;;11.15;100.00;100156.47;5242076;28;20016;-75
2024/03/01 10:29:42;;;;;;;6.13;1.20;;;;;;;11.25;100.00;100152.66;5236417;28;20079;-77
2024/03/01 10:32:34;;;;;;;5.65;1.83;;;;;;;11.25;100.00;100142.75;5238812;28;20103;-78
2024/03/01 10:35:12;;;;;;;4.47;1.13;;;;;;;11.24;100.00;100153.66;5242508;28;20020;-75
2024/03/01 10:37:50;;;;;;;5.10;0.90;;;;;;;11.23;100.00;100138.56;5245967;28;20503;-75
2024/03/01 10:40:23;;;;;;;1.92;0.80;;;;;;;11.02;100.00;100140.16;5243479;28;20649;-76
2024/03/01 10:42:59;;;;;;;5.45;1.00;;;;;;;11.12;100.00;100127.28;5242196;28;20028;-75
2024/03/01 10:45:38;;;;;;;4.10;0.95;;;;;;;10.83;100.00;100133.50;5242031;28;20025;-77
2024/03/01 10:48:09;;;;;;;5.50;0.77;;;;;;;10.71;100.00;100126.94;5242195;28;20016;-76
2024/03/01 10:50:49;;;;;;;7.68;1.25;;;;;;;11.07;100.00;100110.91;5244776;28;20035;-76
2024/03/01 10:53:28;;;;;;;3.40;0.90;;;;;;;11.31;100.00;100117.00;5242642;28;20031;-76
2024/03/01 10:56:04;;;;;;;2.67;0.77;;;;;;;11.02;100.00;100102.59;5244607;28;20024;-78
2024/03/01 10:58:57;;;;;;;4.72;1.00;;;;;;;11.17;100.00;100102.56;5243318;28;20031;-77
2024/03/01 11:01:34;;;;;;;3.85;0.93;;;;;;;11.39;100.00;100085.47;5246032;28;20046;-76
2024/03/01 11:04:14;;;;;;;2.90;1.02;;;;;;;11.48;100.00;100077.28;5244367;28;20390;-78
2024/03/01 11:07:01;;;;;;;3.08;0.70;;;;;;;11.35;100.00;100073.47;5241822;28;20029;-77
2024/03/01 11:09:38;;;;;;;8.60;1.85;;;;;;;10.89;100.00;100079.13;5243158;28;20028;-76
2024/03/01 11:12:25;;;;;;;6.10;1.00;;;;;;;10.87;100.00;100072.25;5240407;28;20035;-77
2024/03/01 11:15:03;;;;;;;6.10;0.93;;;;;;;10.49;100.00;100075.06;5243748;28;20016;-75
2024/03/01 11:17:37;;;;;;;2.25;0.98;;;;;;;10.48;100.00;100064.50;5242726;28;20028;-77
2024/03/01 11:20:13;;;;;;;3.83;0.90;;;;;;;10.14;100.00;100060.47;5242370;28;20028;-75
2024/03/01 11:22:48;;;;;;;6.55;1.10;;;;;;;10.38;100.00;100046.00;5246714;28;20051;-75
2024/03/01 11:25:22;;;;;;;;;;;;;;;10.39;100.00;100061.06;5241269;28;20020;-78
2024/03/01 11:27:59;;;;;;;1.35;0.40;;;;;;;10.60;100.00;100060.34;5242673;28;19934;-79
2024/03/01 11:30:32;;;;;;;4.53;1.08;;;;;;;10.62;100.00;100051.09;5246058;28;20111;-75
2024/03/01 11:33:04;;;;;;;1.48;0.80;;;;;;;10.39;100.00;100036.94;5242928;28;20474;-75
2024/03/01 11:35:43;;;;;;;4.65;1.20;;;;;;;10.65;100.00;100033.81;5242231;28;20029;-78
2024/03/01 11:38:27;;;;;;;8.65;0.80;;;;;;;10.67;100.00;100036.28;5244983;28;20115;-78
2024/03/01 11:41:21;;;;;;;7.30;0.70;;;;;;;10.78;100.00;100046.53;5242747;28;20025;-77
2024/03/01 11:44:15;;;;;;;3.15;0.95;;;;;;;10.73;100.00;100031.00;5240785;28;20035;-78
2024/03/01 11:46:58;;;;;;;5.22;0.82;;;;;;;10.75;100.00;100033.53;5235927;28;20507;-78
2024/03/01 11:49:57;;;;;;;2.08;0.55;;;;;;;10.75;100.00;100020.94;5241768;28;20043;-76